Airfield :
LOGIN :

Register | Disclaimer

   EN    FR    IT 

 










Legend :    VFR   Marginal VFR   IFR   Intensive IFR   Very Intensive IFR
Visi :
Ceiling :
>= 8 km
>= 3000ft
5 to 8 km
1000 to 3000 ft
1500m to 5 km
500 to 1000 ft
800 to 1500m
200 to 500 ft
< 800m
< 200 ft
Symbols :   Thunderstorms  Fog  Heavy snow  Heavy precipitations  Wind > 20 kt
SIGMETs :     Misc.  Thunderstorms  Icing  Turbulence  Mountain Waves  Volcanic Ashes







- Airport Elevation : 465 ft
- IATA code : LEJ


EDDP - Leipzig Halle

CURRENT METAR :
  • 200320Z 28013KT 9999 -RA FEW011 BKN018 04/03 Q1015 NOSIG

EXPIRED METARs :
  • 200250Z 27010KT 9999 BKN017 04/03 Q1015 NOSIG
  • 200220Z 27013KT 9999 BKN015 04/03 Q1015 TEMPO BKN014
  • 200150Z 27012KT 9999 BKN015 04/03 Q1015 TEMPO BKN014
  • 200120Z 27010KT 9999 BKN015 04/03 Q1015 TEMPO BKN014
  • 200050Z 28013KT 9999 -RA BKN016 05/03 Q1014 TEMPO 27015G25KT

TAF TAF EDDP
Valid from the 20 at 00:00 until the 21 at 00:00 UTC


192300Z 2000/2024 26013KT 9999 BKN020
TEMPO 2000/2006 26015G25KT BKN012
BECMG 2015/2017 20010KT
TEMPO 2015/2021 4000 -RADZ BKN012
PROB30
TEMPO 2016/2020 2500 RASN BKN009
No reported NOTAMs for that airfield.



MET'MAP, your aeronautical weather chart ! - Copyright ORBIFLY December 2007 - Disclaimer

ORBIFLY MET'MAP TEAM :

Programming & Development : Alexandra Zaïnal
Concept & Development : Baudouin d'Aumeries
Co-Development & Prog : Marc-Olivier Méhu
Technical & hardware support : Manuel Goepfert

Contact : metmap@orbifly.com




SOURCES & CREDITS :

   NOAA